sensor_id;sensor_type;location;lat;lon;timestamp;P1;durP1;ratioP1;P2;durP2;ratioP2
17858;SDS011;35426;30.698;104.050;2024-01-25T00:01:14;36.95;;;22.55;;
17858;SDS011;35426;30.698;104.050;2024-01-25T00:03:48;36.05;;;21.15;;
17858;SDS011;35426;30.698;104.050;2024-01-25T00:06:24;38.92;;;20.67;;
17858;SDS011;35426;30.698;104.050;2024-01-25T00:08:58;41.20;;;22.77;;
17858;SDS011;35426;30.698;104.050;2024-01-25T00:11:35;36.92;;;20.85;;
17858;SDS011;35426;30.698;104.050;2024-01-25T00:14:09;37.28;;;19.50;;
17858;SDS011;35426;30.698;104.050;2024-01-25T00:16:43;35.25;;;20.23;;
17858;SDS011;35426;30.698;104.050;2024-01-25T00:19:18;44.72;;;22.52;;
17858;SDS011;35426;30.698;104.050;2024-01-25T00:21:54;40.88;;;23.52;;
17858;SDS011;35426;30.698;104.050;2024-01-25T00:24:29;45.27;;;23.03;;
17858;SDS011;35426;30.698;104.050;2024-01-25T00:27:03;47.83;;;23.10;;
17858;SDS011;35426;30.698;104.050;2024-01-25T00:29:37;35.40;;;21.10;;
17858;SDS011;35426;30.698;104.050;2024-01-25T00:32:11;40.42;;;23.60;;
17858;SDS011;35426;30.698;104.050;2024-01-25T00:34:45;38.35;;;22.77;;
17858;SDS011;35426;30.698;104.050;2024-01-25T00:37:21;39.15;;;21.67;;
17858;SDS011;35426;30.698;104.050;2024-01-25T00:39:56;36.97;;;20.90;;
17858;SDS011;35426;30.698;104.050;2024-01-25T00:42:31;38.00;;;22.77;;
17858;SDS011;35426;30.698;104.050;2024-01-25T00:45:07;42.45;;;24.20;;
17858;SDS011;35426;30.698;104.050;2024-01-25T00:47:42;40.42;;;22.00;;
17858;SDS011;35426;30.698;104.050;2024-01-25T00:50:18;39.97;;;21.90;;
17858;SDS011;35426;30.698;104.050;2024-01-25T00:52:56;36.78;;;22.27;;
17858;SDS011;35426;30.698;104.050;2024-01-25T00:55:30;50.08;;;21.52;;
17858;SDS011;35426;30.698;104.050;2024-01-25T00:58:05;44.25;;;22.58;;
17858;SDS011;35426;30.698;104.050;2024-01-25T01:00:39;42.17;;;22.40;;
17858;SDS011;35426;30.698;104.050;2024-01-25T01:03:14;42.33;;;23.98;;
17858;SDS011;35426;30.698;104.050;2024-01-25T01:05:50;40.83;;;23.33;;
17858;SDS011;35426;30.698;104.050;2024-01-25T01:08:27;35.60;;;21.05;;
17858;SDS011;35426;30.698;104.050;2024-01-25T01:11:01;42.17;;;23.30;;
17858;SDS011;35426;30.698;104.050;2024-01-25T01:13:35;46.45;;;23.80;;
17858;SDS011;35426;30.698;104.050;2024-01-25T01:16:09;42.00;;;24.05;;
17858;SDS011;35426;30.698;104.050;2024-01-25T01:18:44;41.35;;;23.70;;
17858;SDS011;35426;30.698;104.050;2024-01-25T01:21:19;39.10;;;23.25;;
17858;SDS011;35426;30.698;104.050;2024-01-25T01:23:55;40.83;;;23.27;;
17858;SDS011;35426;30.698;104.050;2024-01-25T01:26:29;41.53;;;24.73;;
17858;SDS011;35426;30.698;104.050;2024-01-25T01:29:04;41.78;;;25.30;;
17858;SDS011;35426;30.698;104.050;2024-01-25T01:31:38;37.47;;;23.90;;
17858;SDS011;35426;30.698;104.050;2024-01-25T01:34:12;41.30;;;24.13;;
17858;SDS011;35426;30.698;104.050;2024-01-25T01:36:47;45.20;;;25.00;;
17858;SDS011;35426;30.698;104.050;2024-01-25T01:39:24;39.60;;;22.75;;
17858;SDS011;35426;30.698;104.050;2024-01-25T01:41:58;42.38;;;26.10;;
17858;SDS011;35426;30.698;104.050;2024-01-25T01:44:33;46.90;;;26.17;;
17858;SDS011;35426;30.698;104.050;2024-01-25T01:47:06;42.47;;;27.17;;
17858;SDS011;35426;30.698;104.050;2024-01-25T01:49:41;44.05;;;26.58;;
17858;SDS011;35426;30.698;104.050;2024-01-25T01:52:18;42.67;;;25.88;;
17858;SDS011;35426;30.698;104.050;2024-01-25T01:54:54;49.67;;;27.13;;
17858;SDS011;35426;30.698;104.050;2024-01-25T01:57:27;43.50;;;25.88;;
17858;SDS011;35426;30.698;104.050;2024-01-25T02:00:02;39.35;;;24.63;;
17858;SDS011;35426;30.698;104.050;2024-01-25T02:02:41;43.67;;;27.77;;
17858;SDS011;35426;30.698;104.050;2024-01-25T02:05:17;41.60;;;26.38;;
17858;SDS011;35426;30.698;104.050;2024-01-25T02:07:52;42.35;;;26.30;;
17858;SDS011;35426;30.698;104.050;2024-01-25T02:10:28;45.80;;;26.48;;
17858;SDS011;35426;30.698;104.050;2024-01-25T02:13:02;42.60;;;27.27;;
17858;SDS011;35426;30.698;104.050;2024-01-25T02:15:36;39.17;;;23.80;;
17858;SDS011;35426;30.698;104.050;2024-01-25T02:18:10;41.75;;;24.75;;
17858;SDS011;35426;30.698;104.050;2024-01-25T02:20:44;39.92;;;25.55;;
17858;SDS011;35426;30.698;104.050;2024-01-25T02:23:20;44.05;;;28.25;;
17858;SDS011;35426;30.698;104.050;2024-01-25T02:25:54;40.92;;;26.80;;
17858;SDS011;35426;30.698;104.050;2024-01-25T02:28:27;48.92;;;28.17;;
17858;SDS011;35426;30.698;104.050;2024-01-25T02:31:02;42.13;;;26.85;;
17858;SDS011;35426;30.698;104.050;2024-01-25T02:33:37;41.85;;;26.08;;
17858;SDS011;35426;30.698;104.050;2024-01-25T02:36:12;40.10;;;27.02;;
17858;SDS011;35426;30.698;104.050;2024-01-25T02:38:48;50.53;;;28.38;;
17858;SDS011;35426;30.698;104.050;2024-01-25T02:41:22;51.95;;;29.48;;
17858;SDS011;35426;30.698;104.050;2024-01-25T02:43:57;52.92;;;29.70;;
17858;SDS011;35426;30.698;104.050;2024-01-25T02:46:32;46.58;;;29.40;;
17858;SDS011;35426;30.698;104.050;2024-01-25T02:49:06;49.60;;;30.17;;
17858;SDS011;35426;30.698;104.050;2024-01-25T02:51:40;48.55;;;28.63;;
17858;SDS011;35426;30.698;104.050;2024-01-25T02:54:16;46.33;;;27.92;;
17858;SDS011;35426;30.698;104.050;2024-01-25T02:56:50;47.97;;;28.85;;
17858;SDS011;35426;30.698;104.050;2024-01-25T02:59:24;41.92;;;28.38;;
17858;SDS011;35426;30.698;104.050;2024-01-25T03:01:58;49.95;;;29.75;;
17858;SDS011;35426;30.698;104.050;2024-01-25T03:04:31;57.78;;;33.75;;
17858;SDS011;35426;30.698;104.050;2024-01-25T03:07:06;61.10;;;33.30;;
17858;SDS011;35426;30.698;104.050;2024-01-25T03:09:42;47.60;;;30.48;;
17858;SDS011;35426;30.698;104.050;2024-01-25T03:12:16;55.70;;;32.38;;
17858;SDS011;35426;30.698;104.050;2024-01-25T03:14:50;51.88;;;33.15;;
17858;SDS011;35426;30.698;104.050;2024-01-25T03:17:24;56.33;;;33.20;;
17858;SDS011;35426;30.698;104.050;2024-01-25T03:19:58;61.67;;;34.75;;
17858;SDS011;35426;30.698;104.050;2024-01-25T03:22:32;56.40;;;33.75;;
17858;SDS011;35426;30.698;104.050;2024-01-25T03:25:09;55.53;;;33.10;;
17858;SDS011;35426;30.698;104.050;2024-01-25T03:27:44;51.97;;;31.20;;
17858;SDS011;35426;30.698;104.050;2024-01-25T03:30:18;57.78;;;34.67;;
17858;SDS011;35426;30.698;104.050;2024-01-25T03:32:51;57.53;;;34.05;;
17858;SDS011;35426;30.698;104.050;2024-01-25T03:35:25;54.38;;;33.50;;
17858;SDS011;35426;30.698;104.050;2024-01-25T03:37:59;60.55;;;36.28;;
17858;SDS011;35426;30.698;104.050;2024-01-25T03:40:35;56.55;;;33.88;;
17858;SDS011;35426;30.698;104.050;2024-01-25T03:43:10;51.45;;;32.60;;
17858;SDS011;35426;30.698;104.050;2024-01-25T03:45:51;56.35;;;35.00;;
17858;SDS011;35426;30.698;104.050;2024-01-25T03:48:25;57.72;;;36.50;;
17858;SDS011;35426;30.698;104.050;2024-01-25T03:50:59;51.80;;;34.65;;
17858;SDS011;35426;30.698;104.050;2024-01-25T03:53:32;57.03;;;34.85;;
17858;SDS011;35426;30.698;104.050;2024-01-25T03:56:12;66.38;;;36.72;;
17858;SDS011;35426;30.698;104.050;2024-01-25T03:58:46;55.83;;;32.80;;
17858;SDS011;35426;30.698;104.050;2024-01-25T04:01:20;50.47;;;31.73;;
17858;SDS011;35426;30.698;104.050;2024-01-25T04:03:58;43.30;;;28.55;;
17858;SDS011;35426;30.698;104.050;2024-01-25T04:06:33;44.33;;;28.95;;
17858;SDS011;35426;30.698;104.050;2024-01-25T04:09:08;55.55;;;33.92;;
17858;SDS011;35426;30.698;104.050;2024-01-25T04:11:45;57.03;;;34.63;;
17858;SDS011;35426;30.698;104.050;2024-01-25T04:14:19;61.30;;;38.05;;
17858;SDS011;35426;30.698;104.050;2024-01-25T04:16:52;47.88;;;30.38;;
17858;SDS011;35426;30.698;104.050;2024-01-25T04:19:26;61.60;;;36.72;;
17858;SDS011;35426;30.698;104.050;2024-01-25T04:22:01;91.65;;;32.30;;
17858;SDS011;35426;30.698;104.050;2024-01-25T04:24:36;63.30;;;34.53;;
17858;SDS011;35426;30.698;104.050;2024-01-25T04:27:12;53.75;;;34.28;;
17858;SDS011;35426;30.698;104.050;2024-01-25T04:29:46;53.58;;;33.75;;
17858;SDS011;35426;30.698;104.050;2024-01-25T04:32:21;57.33;;;31.33;;
17858;SDS011;35426;30.698;104.050;2024-01-25T04:34:54;55.88;;;30.52;;
17858;SDS011;35426;30.698;104.050;2024-01-25T04:37:28;53.55;;;32.60;;
17858;SDS011;35426;30.698;104.050;2024-01-25T04:40:04;45.53;;;29.38;;
17858;SDS011;35426;30.698;104.050;2024-01-25T04:42:40;41.25;;;25.02;;
17858;SDS011;35426;30.698;104.050;2024-01-25T04:45:15;63.47;;;26.85;;
17858;SDS011;35426;30.698;104.050;2024-01-25T04:47:50;40.28;;;25.55;;
17858;SDS011;35426;30.698;104.050;2024-01-25T04:50:24;42.90;;;25.42;;
17858;SDS011;35426;30.698;104.050;2024-01-25T04:53:01;42.42;;;25.88;;
17858;SDS011;35426;30.698;104.050;2024-01-25T04:55:35;43.05;;;25.77;;
17858;SDS011;35426;30.698;104.050;2024-01-25T04:58:10;59.80;;;29.50;;
17858;SDS011;35426;30.698;104.050;2024-01-25T05:00:44;47.05;;;29.30;;
17858;SDS011;35426;30.698;104.050;2024-01-25T05:03:20;38.22;;;24.27;;
17858;SDS011;35426;30.698;104.050;2024-01-25T05:05:54;41.28;;;24.25;;
17858;SDS011;35426;30.698;104.050;2024-01-25T05:08:30;43.60;;;25.63;;
17858;SDS011;35426;30.698;104.050;2024-01-25T05:11:05;40.42;;;24.30;;
17858;SDS011;35426;30.698;104.050;2024-01-25T05:13:43;43.22;;;26.98;;
17858;SDS011;35426;30.698;104.050;2024-01-25T05:16:18;44.70;;;26.90;;
17858;SDS011;35426;30.698;104.050;2024-01-25T05:18:52;41.88;;;26.30;;
17858;SDS011;35426;30.698;104.050;2024-01-25T05:21:28;51.05;;;27.00;;
17858;SDS011;35426;30.698;104.050;2024-01-25T05:24:02;43.58;;;26.52;;
17858;SDS011;35426;30.698;104.050;2024-01-25T05:26:37;50.42;;;28.23;;
17858;SDS011;35426;30.698;104.050;2024-01-25T05:29:14;38.03;;;23.60;;
17858;SDS011;35426;30.698;104.050;2024-01-25T05:31:48;41.97;;;29.60;;
17858;SDS011;35426;30.698;104.050;2024-01-25T05:34:22;50.00;;;30.90;;
17858;SDS011;35426;30.698;104.050;2024-01-25T05:36:58;50.88;;;29.17;;
17858;SDS011;35426;30.698;104.050;2024-01-25T05:39:32;51.33;;;29.52;;
17858;SDS011;35426;30.698;104.050;2024-01-25T05:42:06;49.67;;;28.75;;
17858;SDS011;35426;30.698;104.050;2024-01-25T05:44:43;51.83;;;30.13;;
17858;SDS011;35426;30.698;104.050;2024-01-25T05:47:17;44.85;;;29.27;;
17858;SDS011;35426;30.698;104.050;2024-01-25T05:49:51;51.55;;;31.08;;
17858;SDS011;35426;30.698;104.050;2024-01-25T05:52:26;53.22;;;31.15;;
17858;SDS011;35426;30.698;104.050;2024-01-25T05:55:00;42.17;;;29.38;;
17858;SDS011;35426;30.698;104.050;2024-01-25T05:57:35;47.65;;;30.33;;
17858;SDS011;35426;30.698;104.050;2024-01-25T06:00:12;49.67;;;30.40;;
17858;SDS011;35426;30.698;104.050;2024-01-25T06:02:48;54.53;;;30.13;;
17858;SDS011;35426;30.698;104.050;2024-01-25T06:05:24;50.40;;;30.00;;
17858;SDS011;35426;30.698;104.050;2024-01-25T06:07:58;44.17;;;27.67;;
17858;SDS011;35426;30.698;104.050;2024-01-25T06:10:32;46.45;;;28.85;;
17858;SDS011;35426;30.698;104.050;2024-01-25T06:13:07;50.08;;;30.25;;
17858;SDS011;35426;30.698;104.050;2024-01-25T06:15:42;43.97;;;30.08;;
17858;SDS011;35426;30.698;104.050;2024-01-25T06:20:51;40.03;;;26.15;;
17858;SDS011;35426;30.698;104.050;2024-01-25T06:23:25;43.22;;;26.08;;
17858;SDS011;35426;30.698;104.050;2024-01-25T06:25:59;44.33;;;28.45;;
17858;SDS011;35426;30.698;104.050;2024-01-25T06:28:33;42.05;;;25.17;;
17858;SDS011;35426;30.698;104.050;2024-01-25T06:31:08;42.42;;;25.48;;
17858;SDS011;35426;30.698;104.050;2024-01-25T06:33:52;41.72;;;27.00;;
17858;SDS011;35426;30.698;104.050;2024-01-25T06:36:27;47.78;;;27.83;;
17858;SDS011;35426;30.698;104.050;2024-01-25T06:39:01;45.00;;;27.60;;
17858;SDS011;35426;30.698;104.050;2024-01-25T06:41:36;45.20;;;28.33;;
17858;SDS011;35426;30.698;104.050;2024-01-25T06:44:09;45.25;;;29.08;;
17858;SDS011;35426;30.698;104.050;2024-01-25T06:46:45;50.13;;;29.40;;
17858;SDS011;35426;30.698;104.050;2024-01-25T06:49:18;47.70;;;28.58;;
17858;SDS011;35426;30.698;104.050;2024-01-25T06:51:53;45.55;;;29.02;;
17858;SDS011;35426;30.698;104.050;2024-01-25T06:54:26;47.53;;;29.42;;
17858;SDS011;35426;30.698;104.050;2024-01-25T06:57:01;44.05;;;28.63;;
17858;SDS011;35426;30.698;104.050;2024-01-25T06:59:35;47.53;;;28.30;;
17858;SDS011;35426;30.698;104.050;2024-01-25T07:02:11;37.60;;;26.02;;
17858;SDS011;35426;30.698;104.050;2024-01-25T07:04:45;36.03;;;26.38;;
17858;SDS011;35426;30.698;104.050;2024-01-25T07:07:22;42.58;;;25.45;;
17858;SDS011;35426;30.698;104.050;2024-01-25T07:09:57;45.00;;;27.25;;
17858;SDS011;35426;30.698;104.050;2024-01-25T07:12:31;39.97;;;24.50;;
17858;SDS011;35426;30.698;104.050;2024-01-25T07:15:05;43.50;;;26.90;;
17858;SDS011;35426;30.698;104.050;2024-01-25T07:17:42;40.03;;;25.80;;
17858;SDS011;35426;30.698;104.050;2024-01-25T07:20:17;42.25;;;25.90;;
17858;SDS011;35426;30.698;104.050;2024-01-25T07:22:51;42.58;;;24.45;;
17858;SDS011;35426;30.698;104.050;2024-01-25T07:25:25;39.67;;;25.58;;
17858;SDS011;35426;30.698;104.050;2024-01-25T07:27:59;43.63;;;24.30;;
17858;SDS011;35426;30.698;104.050;2024-01-25T07:30:33;36.10;;;23.40;;
17858;SDS011;35426;30.698;104.050;2024-01-25T07:33:09;36.00;;;23.42;;
17858;SDS011;35426;30.698;104.050;2024-01-25T07:35:43;37.10;;;23.33;;
17858;SDS011;35426;30.698;104.050;2024-01-25T07:38:18;35.65;;;22.63;;
17858;SDS011;35426;30.698;104.050;2024-01-25T07:40:53;36.08;;;21.23;;
17858;SDS011;35426;30.698;104.050;2024-01-25T07:43:27;41.88;;;22.20;;
17858;SDS011;35426;30.698;104.050;2024-01-25T07:46:01;36.90;;;21.67;;
17858;SDS011;35426;30.698;104.050;2024-01-25T07:48:38;38.33;;;22.02;;
17858;SDS011;35426;30.698;104.050;2024-01-25T07:51:14;37.45;;;23.83;;
17858;SDS011;35426;30.698;104.050;2024-01-25T07:53:48;37.00;;;22.95;;
17858;SDS011;35426;30.698;104.050;2024-01-25T07:56:22;39.83;;;22.90;;
17858;SDS011;35426;30.698;104.050;2024-01-25T07:58:56;39.70;;;22.67;;
17858;SDS011;35426;30.698;104.050;2024-01-25T08:01:31;28.67;;;19.60;;
17858;SDS011;35426;30.698;104.050;2024-01-25T08:04:08;35.78;;;20.80;;
17858;SDS011;35426;30.698;104.050;2024-01-25T08:09:15;33.33;;;20.40;;
17858;SDS011;35426;30.698;104.050;2024-01-25T08:11:49;32.30;;;19.50;;
17858;SDS011;35426;30.698;104.050;2024-01-25T08:14:24;32.50;;;19.75;;
17858;SDS011;35426;30.698;104.050;2024-01-25T08:16:59;33.00;;;20.45;;
17858;SDS011;35426;30.698;104.050;2024-01-25T08:19:35;33.60;;;19.38;;
17858;SDS011;35426;30.698;104.050;2024-01-25T08:22:09;28.95;;;17.42;;
17858;SDS011;35426;30.698;104.050;2024-01-25T08:24:45;28.60;;;17.90;;
17858;SDS011;35426;30.698;104.050;2024-01-25T08:27:19;33.08;;;18.38;;
17858;SDS011;35426;30.698;104.050;2024-01-25T08:29:53;31.30;;;18.95;;
17858;SDS011;35426;30.698;104.050;2024-01-25T08:32:26;35.30;;;20.88;;
17858;SDS011;35426;30.698;104.050;2024-01-25T08:35:02;25.67;;;16.85;;
17858;SDS011;35426;30.698;104.050;2024-01-25T08:37:37;27.88;;;18.98;;
17858;SDS011;35426;30.698;104.050;2024-01-25T08:40:12;33.38;;;19.60;;
17858;SDS011;35426;30.698;104.050;2024-01-25T08:42:46;28.17;;;18.77;;
17858;SDS011;35426;30.698;104.050;2024-01-25T08:45:20;36.20;;;19.65;;
17858;SDS011;35426;30.698;104.050;2024-01-25T08:47:54;28.30;;;18.40;;
17858;SDS011;35426;30.698;104.050;2024-01-25T08:50:31;32.00;;;17.88;;
17858;SDS011;35426;30.698;104.050;2024-01-25T08:53:06;32.90;;;18.58;;
17858;SDS011;35426;30.698;104.050;2024-01-25T08:55:40;35.72;;;18.27;;
17858;SDS011;35426;30.698;104.050;2024-01-25T08:58:14;35.20;;;18.95;;
17858;SDS011;35426;30.698;104.050;2024-01-25T09:00:49;29.08;;;19.38;;
17858;SDS011;35426;30.698;104.050;2024-01-25T09:03:23;31.27;;;18.48;;
17858;SDS011;35426;30.698;104.050;2024-01-25T09:05:59;30.70;;;18.38;;
17858;SDS011;35426;30.698;104.050;2024-01-25T09:11:08;33.47;;;17.60;;
17858;SDS011;35426;30.698;104.050;2024-01-25T09:13:41;34.63;;;18.02;;
17858;SDS011;35426;30.698;104.050;2024-01-25T09:16:18;29.92;;;18.58;;
17858;SDS011;35426;30.698;104.050;2024-01-25T09:18:52;27.20;;;17.27;;
17858;SDS011;35426;30.698;104.050;2024-01-25T09:21:28;30.45;;;18.60;;
17858;SDS011;35426;30.698;104.050;2024-01-25T09:24:02;30.98;;;17.00;;
17858;SDS011;35426;30.698;104.050;2024-01-25T09:26:36;30.45;;;17.73;;
17858;SDS011;35426;30.698;104.050;2024-01-25T09:29:12;29.30;;;17.10;;
17858;SDS011;35426;30.698;104.050;2024-01-25T09:31:45;36.40;;;16.45;;
17858;SDS011;35426;30.698;104.050;2024-01-25T09:34:19;28.98;;;16.40;;
17858;SDS011;35426;30.698;104.050;2024-01-25T09:36:57;25.23;;;16.30;;
17858;SDS011;35426;30.698;104.050;2024-01-25T09:39:31;32.08;;;17.48;;
17858;SDS011;35426;30.698;104.050;2024-01-25T09:42:09;28.40;;;16.55;;
17858;SDS011;35426;30.698;104.050;2024-01-25T09:44:44;32.58;;;16.90;;
17858;SDS011;35426;30.698;104.050;2024-01-25T09:47:19;29.95;;;17.75;;
17858;SDS011;35426;30.698;104.050;2024-01-25T09:49:54;32.45;;;17.35;;
17858;SDS011;35426;30.698;104.050;2024-01-25T09:52:30;30.35;;;17.52;;
17858;SDS011;35426;30.698;104.050;2024-01-25T09:55:06;29.88;;;17.75;;
17858;SDS011;35426;30.698;104.050;2024-01-25T09:57:45;32.78;;;18.27;;
17858;SDS011;35426;30.698;104.050;2024-01-25T10:00:21;28.30;;;16.08;;
17858;SDS011;35426;30.698;104.050;2024-01-25T10:02:58;28.00;;;17.42;;
17858;SDS011;35426;30.698;104.050;2024-01-25T10:05:33;25.38;;;16.58;;
17858;SDS011;35426;30.698;104.050;2024-01-25T10:08:15;27.08;;;16.83;;
17858;SDS011;35426;30.698;104.050;2024-01-25T10:10:53;28.10;;;17.60;;
17858;SDS011;35426;30.698;104.050;2024-01-25T10:13:27;28.27;;;17.20;;
17858;SDS011;35426;30.698;104.050;2024-01-25T10:16:01;34.45;;;17.65;;
17858;SDS011;35426;30.698;104.050;2024-01-25T10:18:35;27.83;;;16.98;;
17858;SDS011;35426;30.698;104.050;2024-01-25T10:21:12;29.73;;;16.70;;
17858;SDS011;35426;30.698;104.050;2024-01-25T10:23:49;31.48;;;18.10;;
17858;SDS011;35426;30.698;104.050;2024-01-25T10:26:26;27.88;;;16.67;;
17858;SDS011;35426;30.698;104.050;2024-01-25T10:29:00;29.95;;;17.90;;
17858;SDS011;35426;30.698;104.050;2024-01-25T10:31:35;31.13;;;17.27;;
17858;SDS011;35426;30.698;104.050;2024-01-25T10:34:13;36.63;;;19.55;;
17858;SDS011;35426;30.698;104.050;2024-01-25T10:36:48;26.48;;;16.98;;
17858;SDS011;35426;30.698;104.050;2024-01-25T10:39:26;37.40;;;18.20;;
17858;SDS011;35426;30.698;104.050;2024-01-25T10:42:01;39.90;;;18.55;;
17858;SDS011;35426;30.698;104.050;2024-01-25T10:44:36;38.67;;;17.92;;
17858;SDS011;35426;30.698;104.050;2024-01-25T10:47:13;36.70;;;20.33;;
17858;SDS011;35426;30.698;104.050;2024-01-25T10:49:49;37.08;;;20.52;;
17858;SDS011;35426;30.698;104.050;2024-01-25T10:52:24;37.33;;;19.02;;
17858;SDS011;35426;30.698;104.050;2024-01-25T10:55:00;31.58;;;19.10;;
17858;SDS011;35426;30.698;104.050;2024-01-25T10:57:37;31.95;;;18.55;;
17858;SDS011;35426;30.698;104.050;2024-01-25T11:00:13;34.78;;;19.55;;
17858;SDS011;35426;30.698;104.050;2024-01-25T11:02:47;36.75;;;20.77;;
17858;SDS011;35426;30.698;104.050;2024-01-25T11:05:22;39.00;;;20.08;;
17858;SDS011;35426;30.698;104.050;2024-01-25T11:07:58;38.90;;;21.23;;
17858;SDS011;35426;30.698;104.050;2024-01-25T11:10:34;33.95;;;19.67;;
17858;SDS011;35426;30.698;104.050;2024-01-25T11:13:13;38.80;;;21.67;;
17858;SDS011;35426;30.698;104.050;2024-01-25T11:15:47;34.28;;;20.38;;
17858;SDS011;35426;30.698;104.050;2024-01-25T11:18:24;40.03;;;21.30;;
17858;SDS011;35426;30.698;104.050;2024-01-25T11:21:01;36.95;;;20.08;;
17858;SDS011;35426;30.698;104.050;2024-01-25T11:23:39;41.40;;;20.33;;
17858;SDS011;35426;30.698;104.050;2024-01-25T11:26:21;41.30;;;22.13;;
17858;SDS011;35426;30.698;104.050;2024-01-25T11:28:58;40.45;;;21.40;;
17858;SDS011;35426;30.698;104.050;2024-01-25T11:31:33;40.80;;;23.00;;
17858;SDS011;35426;30.698;104.050;2024-01-25T11:34:09;35.97;;;22.75;;
17858;SDS011;35426;30.698;104.050;2024-01-25T11:36:44;36.40;;;21.20;;
17858;SDS011;35426;30.698;104.050;2024-01-25T11:39:19;44.42;;;21.13;;
17858;SDS011;35426;30.698;104.050;2024-01-25T11:41:56;37.53;;;21.77;;
17858;SDS011;35426;30.698;104.050;2024-01-25T11:44:30;36.30;;;20.70;;
17858;SDS011;35426;30.698;104.050;2024-01-25T11:47:05;45.80;;;23.08;;
17858;SDS011;35426;30.698;104.050;2024-01-25T11:49:39;40.50;;;22.75;;
17858;SDS011;35426;30.698;104.050;2024-01-25T11:52:13;39.05;;;21.17;;
17858;SDS011;35426;30.698;104.050;2024-01-25T11:54:49;33.90;;;22.42;;
17858;SDS011;35426;30.698;104.050;2024-01-25T11:57:25;36.35;;;21.95;;
17858;SDS011;35426;30.698;104.050;2024-01-25T12:02:34;45.25;;;22.33;;
17858;SDS011;35426;30.698;104.050;2024-01-25T12:05:10;33.92;;;19.80;;
17858;SDS011;35426;30.698;104.050;2024-01-25T12:07:45;36.20;;;20.58;;
17858;SDS011;35426;30.698;104.050;2024-01-25T12:10:19;38.67;;;23.00;;
17858;SDS011;35426;30.698;104.050;2024-01-25T12:12:57;34.65;;;20.75;;
17858;SDS011;35426;30.698;104.050;2024-01-25T12:15:34;41.90;;;20.98;;
17858;SDS011;35426;30.698;104.050;2024-01-25T12:18:08;39.95;;;23.45;;
17858;SDS011;35426;30.698;104.050;2024-01-25T12:20:42;38.55;;;22.52;;
17858;SDS011;35426;30.698;104.050;2024-01-25T12:23:17;41.03;;;22.95;;
17858;SDS011;35426;30.698;104.050;2024-01-25T12:25:51;38.03;;;23.23;;
17858;SDS011;35426;30.698;104.050;2024-01-25T12:28:29;39.17;;;23.42;;
17858;SDS011;35426;30.698;104.050;2024-01-25T12:31:04;42.88;;;22.77;;
17858;SDS011;35426;30.698;104.050;2024-01-25T12:33:41;39.33;;;23.30;;
17858;SDS011;35426;30.698;104.050;2024-01-25T12:36:15;42.63;;;22.75;;
17858;SDS011;35426;30.698;104.050;2024-01-25T12:38:50;38.40;;;22.52;;
17858;SDS011;35426;30.698;104.050;2024-01-25T12:41:25;41.13;;;21.98;;
17858;SDS011;35426;30.698;104.050;2024-01-25T12:44:01;38.72;;;23.33;;
17858;SDS011;35426;30.698;104.050;2024-01-25T12:46:36;39.75;;;24.40;;
17858;SDS011;35426;30.698;104.050;2024-01-25T12:49:11;39.22;;;23.52;;
17858;SDS011;35426;30.698;104.050;2024-01-25T12:51:44;44.15;;;21.95;;
17858;SDS011;35426;30.698;104.050;2024-01-25T12:54:21;38.38;;;23.42;;
17858;SDS011;35426;30.698;104.050;2024-01-25T12:56:54;46.15;;;24.52;;
17858;SDS011;35426;30.698;104.050;2024-01-25T12:59:31;41.92;;;24.75;;
17858;SDS011;35426;30.698;104.050;2024-01-25T13:02:06;45.58;;;25.10;;
17858;SDS011;35426;30.698;104.050;2024-01-25T13:04:40;41.72;;;24.52;;
17858;SDS011;35426;30.698;104.050;2024-01-25T13:07:15;42.40;;;23.33;;
17858;SDS011;35426;30.698;104.050;2024-01-25T13:09:49;42.08;;;25.13;;
17858;SDS011;35426;30.698;104.050;2024-01-25T13:12:24;45.15;;;24.10;;
17858;SDS011;35426;30.698;104.050;2024-01-25T13:15:00;47.63;;;22.92;;
17858;SDS011;35426;30.698;104.050;2024-01-25T13:17:35;43.38;;;25.77;;
17858;SDS011;35426;30.698;104.050;2024-01-25T13:20:10;42.08;;;23.73;;
17858;SDS011;35426;30.698;104.050;2024-01-25T13:22:44;39.90;;;23.58;;
17858;SDS011;35426;30.698;104.050;2024-01-25T13:25:17;45.90;;;26.33;;
17858;SDS011;35426;30.698;104.050;2024-01-25T13:27:52;46.45;;;25.92;;
17858;SDS011;35426;30.698;104.050;2024-01-25T13:30:29;41.53;;;24.23;;
17858;SDS011;35426;30.698;104.050;2024-01-25T13:33:03;48.95;;;24.45;;
17858;SDS011;35426;30.698;104.050;2024-01-25T13:35:37;45.28;;;22.90;;
17858;SDS011;35426;30.698;104.050;2024-01-25T13:38:11;42.00;;;24.73;;
17858;SDS011;35426;30.698;104.050;2024-01-25T13:40:46;42.20;;;21.95;;
17858;SDS011;35426;30.698;104.050;2024-01-25T13:43:20;46.40;;;24.73;;
17858;SDS011;35426;30.698;104.050;2024-01-25T13:45:57;50.25;;;24.17;;
17858;SDS011;35426;30.698;104.050;2024-01-25T13:48:31;44.13;;;22.98;;
17858;SDS011;35426;30.698;104.050;2024-01-25T13:51:04;42.20;;;23.42;;
17858;SDS011;35426;30.698;104.050;2024-01-25T13:53:38;40.50;;;24.40;;
17858;SDS011;35426;30.698;104.050;2024-01-25T13:56:12;50.50;;;23.02;;
17858;SDS011;35426;30.698;104.050;2024-01-25T13:58:46;48.15;;;25.65;;
17858;SDS011;35426;30.698;104.050;2024-01-25T14:01:22;42.00;;;23.33;;
17858;SDS011;35426;30.698;104.050;2024-01-25T14:03:56;41.65;;;23.58;;
17858;SDS011;35426;30.698;104.050;2024-01-25T14:06:30;45.00;;;24.90;;
17858;SDS011;35426;30.698;104.050;2024-01-25T14:09:04;47.20;;;25.35;;
17858;SDS011;35426;30.698;104.050;2024-01-25T14:11:38;47.53;;;27.60;;
17858;SDS011;35426;30.698;104.050;2024-01-25T14:14:12;49.42;;;24.92;;
17858;SDS011;35426;30.698;104.050;2024-01-25T14:16:48;49.20;;;27.10;;
17858;SDS011;35426;30.698;104.050;2024-01-25T14:19:22;44.50;;;24.73;;
17858;SDS011;35426;30.698;104.050;2024-01-25T14:21:56;44.10;;;23.45;;
17858;SDS011;35426;30.698;104.050;2024-01-25T14:24:49;46.22;;;26.20;;
17858;SDS011;35426;30.698;104.050;2024-01-25T14:27:23;42.25;;;25.40;;
17858;SDS011;35426;30.698;104.050;2024-01-25T14:29:56;43.40;;;26.05;;
17858;SDS011;35426;30.698;104.050;2024-01-25T14:32:33;42.83;;;24.00;;
17858;SDS011;35426;30.698;104.050;2024-01-25T14:35:07;46.47;;;26.45;;
17858;SDS011;35426;30.698;104.050;2024-01-25T14:37:41;51.05;;;26.05;;
17858;SDS011;35426;30.698;104.050;2024-01-25T14:40:19;50.33;;;26.58;;
17858;SDS011;35426;30.698;104.050;2024-01-25T14:43:12;42.47;;;26.33;;
17858;SDS011;35426;30.698;104.050;2024-01-25T14:45:46;45.28;;;26.45;;
17858;SDS011;35426;30.698;104.050;2024-01-25T14:48:22;50.15;;;28.38;;
17858;SDS011;35426;30.698;104.050;2024-01-25T14:50:56;44.75;;;27.27;;